メインページ
METAR-TAF:

METAR-TAF

空港 :

チレカ国際空港

ブランタイヤ, マラウイ

緯度: 15-41S, 経度: 034-58E, 海抜: 766m

現時点の気象観測

当レポートは47分前の08:00(UTC)に作成
の風 6kt
気温 23°C
湿度 78%
気圧 1018 hPa
視程10km以上
高度600ftの雲はほとんどない
高度2000ftの千切れ雲あり

METAR: FWCL 280800Z 17006KT 9999 FEW006 BKN020 23/19 Q1018 NOSIG

時間: 10:47 (08:47 UTC)

予報

当レポートは4時間17分前の04:30(UTC)に作成
予報は28日の 06時(UTC)から 29日の 12時(UTC)まで有効
西/南西の風 5kt
視程: 2000m
高度400ftの雲は散在している
高度2000ftの千切れ雲あり
近辺で霧
確率 30% :
28日の 0600時(UTC)から
南/南東の風 7kt
視程10km以上
高度2000ftの雲はほとんどない
高度3000ftの雲は散在している
高度7000ftの千切れ雲あり
弱いにわか雨
28日の 14時(UTC)から 28日の 18時(UTC)まで徐々に
視程10km以上
29日の 06時(UTC)から 29日の 10時(UTC)まで徐々に
南/南東の風 7kt
視程10km以上
高度2000ftの雲はほとんどない
高度7000ftの雲はほとんどない

TAF: FWCL 280430Z 2806/2912 25005KT 2000 VCFG SCT004 BKN020 TX25/2812Z TN18/2902Z PROB30 FM280600 15007KT 9999 -SHRA FEW020 SCT030 BKN070 BECMG 2814/2818 9999 BECMG 2906/2910 16007KT 9999 FEW020 FEW070

4,000以上の空港の気象観測と天気予報(METAR報とTAF報)

利用可能な観測所は地図上に黄色い丸と赤い丸で示す。

丸の上にカーソルを重ねると観測所名を参照できる。

次にクリックすると気象観測と天気予報を参照できる。

マップの切り替え:黒色「×」印の緑ボタンをクリックして拡大、「-」印の緑ボタンをクリックして縮小、緑色の三角印をクリックして隣りの地図に切り替え


METAR-TAF: